createdAt,value
2023-01-29T00:00:35.485Z,-32.02
2023-01-29T00:03:43.029Z,-31.05
2023-01-29T00:07:03.493Z,-30.46
2023-01-29T00:10:08.618Z,-29.97
2023-01-29T00:13:13.122Z,-30.36
2023-01-29T00:16:18.145Z,-30.25
2023-01-29T00:19:24.710Z,-29.38
2023-01-29T00:22:37.539Z,-28.76
2023-01-29T00:25:50.063Z,-28.04
2023-01-29T00:29:02.170Z,-28.17
2023-01-29T00:32:13.891Z,-27.05
2023-01-29T00:35:27.676Z,-27.00
2023-01-29T00:38:32.458Z,-27.28
2023-01-29T00:42:05.908Z,-26.95
2023-01-29T00:45:39.517Z,-26.15
2023-01-29T00:48:46.875Z,-24.83
2023-01-29T00:52:10.690Z,-24.37
2023-01-29T00:55:17.597Z,-23.94
2023-01-29T00:58:28.939Z,-23.42
2023-01-29T01:01:51.662Z,-21.89
2023-01-29T01:04:56.135Z,-20.43
2023-01-29T01:08:00.515Z,-21.19
2023-01-29T01:11:07.440Z,-19.39
2023-01-29T01:14:12.003Z,-18.71
2023-01-29T01:17:19.244Z,-18.50
2023-01-29T01:20:24.512Z,-17.51
2023-01-29T01:23:28.986Z,-17.41
2023-01-29T01:26:34.326Z,-17.82
2023-01-29T01:29:39.901Z,-17.71
2023-01-29T01:32:44.869Z,-16.81
2023-01-29T01:35:49.882Z,-15.98
2023-01-29T01:38:55.086Z,-16.73
2023-01-29T01:41:59.635Z,-16.95
2023-01-29T01:45:08.800Z,-15.93
2023-01-29T01:48:27.300Z,-15.74
2023-01-29T01:51:39.272Z,-15.99
2023-01-29T01:54:44.106Z,-15.79
2023-01-29T01:57:56.871Z,-15.42
2023-01-29T02:01:02.762Z,-15.75
2023-01-29T02:04:29.966Z,-16.21
2023-01-29T02:07:53.271Z,-16.54
2023-01-29T02:10:59.235Z,-16.63
2023-01-29T02:14:07.276Z,-16.39
2023-01-29T02:17:18.844Z,-16.09
2023-01-29T02:20:31.331Z,-16.56
2023-01-29T02:24:07.548Z,-17.06
2023-01-29T02:27:49.121Z,-17.30
2023-01-29T02:31:07.900Z,-17.34
2023-01-29T02:34:30.159Z,-17.74
2023-01-29T02:37:51.071Z,-18.08
2023-01-29T02:41:23.343Z,-18.43
2023-01-29T02:44:58.337Z,-18.80
2023-01-29T02:48:05.233Z,-18.55
2023-01-29T02:51:27.558Z,-18.55
2023-01-29T02:54:47.409Z,-18.69
2023-01-29T02:57:57.283Z,-18.58
2023-01-29T03:01:43.178Z,-18.97
2023-01-29T03:05:01.307Z,-18.90
2023-01-29T03:08:12.457Z,-18.88
2023-01-29T03:11:30.911Z,-18.80
2023-01-29T03:15:17.394Z,-19.12
2023-01-29T03:18:47.131Z,-19.17
2023-01-29T03:22:00.617Z,-19.51
2023-01-29T03:25:28.038Z,-19.29
2023-01-29T03:28:51.968Z,-19.11
2023-01-29T03:32:06.713Z,-19.41
2023-01-29T03:35:36.512Z,-19.43
2023-01-29T03:39:08.416Z,-19.52
2023-01-29T03:42:31.160Z,-20.20
2023-01-29T03:46:05.045Z,-20.39
2023-01-29T03:49:28.086Z,-20.00
2023-01-29T03:53:07.786Z,-19.83
2023-01-29T03:56:41.839Z,-19.75
2023-01-29T04:00:16.440Z,-19.54
2023-01-29T04:04:04.900Z,-19.69
2023-01-29T04:07:16.499Z,-19.35
2023-01-29T04:10:26.124Z,-19.67
2023-01-29T04:13:34.566Z,-19.09
2023-01-29T04:16:43.566Z,-19.28
2023-01-29T04:19:51.287Z,-18.93
2023-01-29T04:22:55.780Z,-19.27
2023-01-29T04:26:12.788Z,-18.99
2023-01-29T04:29:41.720Z,-18.73
2023-01-29T04:33:11.453Z,-19.37
2023-01-29T04:36:32.197Z,-18.90
2023-01-29T04:40:15.043Z,-19.27
2023-01-29T04:43:49.232Z,-19.29
2023-01-29T04:47:19.041Z,-19.09
2023-01-29T04:50:26.043Z,-19.22
2023-01-29T04:53:59.446Z,-18.95
2023-01-29T04:57:39.813Z,-18.78
2023-01-29T05:00:57.929Z,-18.72
2023-01-29T05:04:12.280Z,-18.64
2023-01-29T05:07:25.861Z,-18.85
2023-01-29T05:10:39.136Z,-18.73
2023-01-29T05:13:46.719Z,-18.36
2023-01-29T05:16:58.442Z,-18.50
2023-01-29T05:20:05.891Z,-18.24
2023-01-29T05:23:26.447Z,-18.27
2023-01-29T05:26:58.601Z,-18.71
2023-01-29T05:30:08.655Z,-18.44
2023-01-29T05:33:16.579Z,-18.46
2023-01-29T05:36:34.163Z,-18.41
2023-01-29T05:39:38.628Z,-18.85
2023-01-29T05:42:43.320Z,-18.30
2023-01-29T05:46:01.087Z,-17.97
2023-01-29T05:49:11.898Z,-17.99
2023-01-29T05:52:19.041Z,-17.97
2023-01-29T05:55:26.249Z,-18.17
2023-01-29T05:58:32.904Z,-17.98
2023-01-29T06:01:40.351Z,-18.24
2023-01-29T06:04:48.018Z,-18.38
2023-01-29T06:07:53.152Z,-18.23
2023-01-29T06:11:04.023Z,-18.09
2023-01-29T06:14:08.139Z,-18.05
2023-01-29T06:17:12.396Z,-18.24
2023-01-29T06:20:16.768Z,-18.69
2023-01-29T06:23:21.306Z,-18.28
2023-01-29T06:26:25.804Z,-18.47
2023-01-29T06:29:30.356Z,-18.11
2023-01-29T06:32:35.827Z,-18.66
2023-01-29T06:35:40.525Z,-18.23
2023-01-29T06:38:45.203Z,-18.64
2023-01-29T06:41:50.699Z,-18.69
2023-01-29T06:44:58.793Z,-18.23
2023-01-29T06:48:03.047Z,-18.21
2023-01-29T06:51:30.710Z,-18.27
2023-01-29T06:54:38.419Z,-18.14
2023-01-29T06:57:42.577Z,-18.36
2023-01-29T07:00:47.258Z,-18.31
2023-01-29T07:03:52.727Z,-18.48
2023-01-29T07:06:57.216Z,-18.60
2023-01-29T07:10:01.799Z,-19.13
2023-01-29T07:13:07.633Z,-19.20
2023-01-29T07:16:11.755Z,-19.16
2023-01-29T07:19:16.504Z,-19.16
2023-01-29T07:22:20.877Z,-18.95
2023-01-29T07:25:26.254Z,-19.15
2023-01-29T07:28:30.975Z,-19.37
2023-01-29T07:31:35.798Z,-19.92
2023-01-29T07:34:40.018Z,-19.51
2023-01-29T07:37:43.894Z,-19.79
2023-01-29T07:40:48.622Z,-19.95
2023-01-29T07:43:53.269Z,-19.90
2023-01-29T07:46:57.659Z,-20.11
2023-01-29T07:50:02.431Z,-20.11
2023-01-29T07:53:06.478Z,-20.43
2023-01-29T07:56:11.112Z,-20.41
2023-01-29T07:59:15.746Z,-20.25
2023-01-29T08:02:20.473Z,-20.35
2023-01-29T08:05:25.135Z,-20.03
2023-01-29T08:08:29.382Z,-20.18
2023-01-29T08:11:33.948Z,-20.38
2023-01-29T08:14:38.597Z,-20.52
2023-01-29T08:17:57.188Z,-20.55
2023-01-29T08:21:07.455Z,-21.08
2023-01-29T08:24:11.934Z,-21.06
2023-01-29T08:27:16.542Z,-21.05
2023-01-29T08:30:21.298Z,-21.67
2023-01-29T08:33:38.390Z,-21.21
2023-01-29T08:36:43.340Z,-20.56
2023-01-29T08:39:48.975Z,-20.53
2023-01-29T08:42:53.704Z,-20.53
2023-01-29T08:45:58.369Z,-20.52
2023-01-29T08:49:03.206Z,-20.95
2023-01-29T08:52:10.194Z,-20.62
2023-01-29T08:55:15.734Z,-20.71
2023-01-29T08:58:20.752Z,-20.50
2023-01-29T09:01:29.252Z,-20.54
2023-01-29T09:04:33.735Z,-20.78
2023-01-29T09:07:38.382Z,-20.85
2023-01-29T09:10:46.135Z,-20.87
2023-01-29T09:13:51.719Z,-20.71
2023-01-29T09:16:56.416Z,-20.87
2023-01-29T09:20:02.574Z,-20.95
2023-01-29T09:23:09.830Z,-20.88
2023-01-29T09:26:15.077Z,-20.98
2023-01-29T09:29:19.438Z,-21.37
2023-01-29T09:32:52.136Z,-22.43
2023-01-29T09:35:48.736Z,-23.07
2023-01-29T09:38:53.208Z,-23.15
2023-01-29T09:42:13.975Z,-23.19
2023-01-29T09:45:25.685Z,-23.38
2023-01-29T09:48:34.707Z,-23.49
2023-01-29T09:51:43.405Z,-23.49
2023-01-29T09:55:05.976Z,-23.67
2023-01-29T09:58:18.415Z,-24.08
2023-01-29T10:01:46.074Z,-24.18
2023-01-29T10:05:04.532Z,-24.34
2023-01-29T10:08:46.917Z,-24.55
2023-01-29T10:12:09.387Z,-24.77
2023-01-29T10:15:24.521Z,-24.77
2023-01-29T10:18:29.114Z,-25.09
2023-01-29T10:21:41.368Z,-24.88
2023-01-29T10:24:58.594Z,-24.70
2023-01-29T10:28:03.131Z,-25.03
2023-01-29T10:31:15.928Z,-24.96
2023-01-29T10:34:31.511Z,-24.74
2023-01-29T10:37:44.418Z,-24.93
2023-01-29T10:41:05.942Z,-25.65
2023-01-29T10:44:22.885Z,-25.58
2023-01-29T10:48:11.461Z,-25.56
2023-01-29T10:51:34.931Z,-26.29
2023-01-29T10:54:55.665Z,-25.64
2023-01-29T10:58:35.700Z,-25.64
2023-01-29T11:01:41.877Z,-26.34
2023-01-29T11:04:46.353Z,-26.12
2023-01-29T11:08:06.327Z,-26.31
2023-01-29T11:11:23.083Z,-26.59
2023-01-29T11:14:36.182Z,-26.49
2023-01-29T11:18:14.383Z,-26.93
2023-01-29T11:21:20.085Z,-26.93
2023-01-29T11:24:25.642Z,-26.85
2023-01-29T11:27:34.755Z,-27.06
2023-01-29T11:30:42.304Z,-26.93
2023-01-29T11:33:49.215Z,-27.05
2023-01-29T11:37:06.323Z,-26.95
2023-01-29T11:40:21.640Z,-26.42
2023-01-29T11:43:31.996Z,-26.27
2023-01-29T11:46:41.131Z,-26.30
2023-01-29T11:49:55.941Z,-26.47
2023-01-29T11:53:04.193Z,-27.26
2023-01-29T11:56:41.808Z,-27.45
2023-01-29T11:59:53.112Z,-27.65
2023-01-29T12:03:14.306Z,-27.18
2023-01-29T12:06:26.021Z,-27.44
2023-01-29T12:09:34.077Z,-27.43
2023-01-29T12:12:49.883Z,-27.18
2023-01-29T12:16:20.909Z,-27.73
2023-01-29T12:19:52.158Z,-27.97
2023-01-29T12:23:13.204Z,-28.17
2023-01-29T12:26:25.055Z,-28.27
2023-01-29T12:29:58.152Z,-28.48
2023-01-29T12:33:37.280Z,-28.43
2023-01-29T12:37:00.203Z,-28.31
2023-01-29T12:40:17.012Z,-28.64
2023-01-29T12:43:32.582Z,-28.29
2023-01-29T12:46:51.394Z,-27.80
2023-01-29T12:50:03.167Z,-27.93
2023-01-29T12:53:24.969Z,-27.88
2023-01-29T12:56:44.697Z,-28.40
2023-01-29T13:00:04.175Z,-28.73
2023-01-29T13:03:45.944Z,-29.06
2023-01-29T13:07:00.140Z,-28.86
2023-01-29T13:10:17.115Z,-28.96
2023-01-29T13:13:35.989Z,-28.55
2023-01-29T13:16:48.830Z,-28.58
2023-01-29T13:20:00.580Z,-28.30
2023-01-29T13:23:48.020Z,-28.18
2023-01-29T13:26:55.317Z,-28.13
2023-01-29T13:30:04.450Z,-28.66
2023-01-29T13:33:11.730Z,-28.07
2023-01-29T13:36:25.613Z,-27.98
2023-01-29T13:39:40.004Z,-28.58
2023-01-29T13:42:49.343Z,-29.04
2023-01-29T13:45:55.972Z,-28.46
2023-01-29T13:49:05.654Z,-28.56
2023-01-29T13:52:29.113Z,-28.77
2023-01-29T13:55:41.268Z,-29.85
2023-01-29T13:58:47.943Z,-29.47
2023-01-29T14:01:54.047Z,-29.20
2023-01-29T14:05:31.074Z,-28.81
2023-01-29T14:08:45.790Z,-29.81
2023-01-29T14:11:52.474Z,-29.74
2023-01-29T14:14:56.176Z,-29.19
2023-01-29T14:18:07.148Z,-29.18
2023-01-29T14:21:15.305Z,-29.33
2023-01-29T14:24:25.878Z,-29.11
2023-01-29T14:27:32.488Z,-29.21
2023-01-29T14:30:38.941Z,-29.43
2023-01-29T14:33:43.557Z,-29.20
2023-01-29T14:36:56.280Z,-28.72
2023-01-29T14:40:37.656Z,-29.32
2023-01-29T14:43:43.857Z,-29.47
2023-01-29T14:46:54.450Z,-29.90
2023-01-29T14:50:10.982Z,-29.82
2023-01-29T14:53:28.778Z,-29.57
2023-01-29T14:56:45.519Z,-29.29
2023-01-29T15:00:00.058Z,-29.24
2023-01-29T15:03:34.296Z,-29.04
2023-01-29T15:07:06.181Z,-29.54
2023-01-29T15:10:24.540Z,-29.23
2023-01-29T15:13:42.869Z,-29.49
2023-01-29T15:16:51.853Z,-29.42
2023-01-29T15:19:58.450Z,-29.67
2023-01-29T15:23:24.813Z,-29.74
2023-01-29T15:26:31.322Z,-29.40
2023-01-29T15:29:40.185Z,-29.37
2023-01-29T15:32:47.328Z,-29.21
2023-01-29T15:36:08.210Z,-29.73
2023-01-29T15:39:23.305Z,-30.13
2023-01-29T15:42:42.677Z,-30.10
2023-01-29T15:45:49.403Z,-30.29
2023-01-29T15:48:57.987Z,-30.19
2023-01-29T15:52:36.922Z,-30.10
2023-01-29T15:55:43.848Z,-30.13
2023-01-29T15:58:51.592Z,-30.60
2023-01-29T16:01:57.735Z,-30.93
2023-01-29T16:05:06.515Z,-30.88
2023-01-29T16:08:17.983Z,-30.99
2023-01-29T16:11:23.868Z,-30.30
2023-01-29T16:14:31.203Z,-30.47
2023-01-29T16:17:41.990Z,-30.16
2023-01-29T16:20:53.124Z,-29.75
2023-01-29T16:24:10.397Z,-29.62
2023-01-29T16:27:17.508Z,-30.19
2023-01-29T16:30:25.734Z,-29.99
2023-01-29T16:33:39.431Z,-30.08
2023-01-29T16:36:49.308Z,-30.45
2023-01-29T16:39:54.221Z,-30.31
2023-01-29T16:43:31.336Z,-30.56
2023-01-29T16:46:48.128Z,-30.77
2023-01-29T16:50:01.381Z,-30.54
2023-01-29T16:53:24.243Z,-30.36
2023-01-29T16:56:33.186Z,-29.96
2023-01-29T16:59:40.987Z,-29.66
2023-01-29T17:02:44.971Z,-29.87
2023-01-29T17:05:57.041Z,-30.07
2023-01-29T17:09:04.559Z,-30.24
2023-01-29T17:12:20.520Z,-30.34
2023-01-29T17:15:45.089Z,-30.30
2023-01-29T17:18:51.282Z,-30.23
2023-01-29T17:22:00.866Z,-30.20
2023-01-29T17:25:12.036Z,-30.23
2023-01-29T17:28:19.190Z,-30.07
2023-01-29T17:31:25.186Z,-30.25
2023-01-29T17:34:30.738Z,-30.24
2023-01-29T17:37:36.660Z,-30.81
2023-01-29T17:40:48.555Z,-30.46
2023-01-29T17:43:56.397Z,-30.28
2023-01-29T17:47:00.480Z,-30.06
2023-01-29T17:50:31.393Z,-29.98
2023-01-29T17:53:45.211Z,-30.06
2023-01-29T17:56:53.225Z,-30.25
2023-01-29T17:59:58.697Z,-30.58
2023-01-29T18:03:04.931Z,-30.76
2023-01-29T18:06:12.586Z,-30.46
2023-01-29T18:09:23.629Z,-30.97
2023-01-29T18:12:29.169Z,-30.52
2023-01-29T18:15:35.723Z,-30.72
2023-01-29T18:18:41.761Z,-30.57
2023-01-29T18:21:47.763Z,-30.20
2023-01-29T18:24:53.661Z,-30.48
2023-01-29T18:27:59.695Z,-30.72
2023-01-29T18:31:06.476Z,-30.58
2023-01-29T18:34:12.536Z,-30.82
2023-01-29T18:37:18.475Z,-30.62
2023-01-29T18:40:24.314Z,-30.52
2023-01-29T18:43:30.253Z,-29.84
2023-01-29T18:46:35.013Z,-29.85
2023-01-29T18:49:39.938Z,-30.36
2023-01-29T18:52:46.319Z,-31.07
2023-01-29T18:56:00.472Z,-31.08
2023-01-29T18:59:06.731Z,-30.77
2023-01-29T19:02:15.701Z,-30.95
2023-01-29T19:05:26.521Z,-31.11
2023-01-29T19:08:32.351Z,-31.13
2023-01-29T19:11:39.022Z,-30.97
2023-01-29T19:14:45.076Z,-31.17
2023-01-29T19:17:52.239Z,-31.32
2023-01-29T19:21:04.377Z,-31.82
2023-01-29T19:24:11.055Z,-31.49
2023-01-29T19:27:16.537Z,-31.87
2023-01-29T19:30:22.596Z,-31.62
2023-01-29T19:33:30.716Z,-31.43
2023-01-29T19:36:38.718Z,-30.95
2023-01-29T19:39:44.200Z,-30.88
2023-01-29T19:42:50.219Z,-31.11
2023-01-29T19:45:59.896Z,-31.23
2023-01-29T19:49:07.628Z,-31.45
2023-01-29T19:52:50.333Z,-33.67
2023-01-29T19:56:05.537Z,-31.92
2023-01-29T19:59:20.189Z,-31.27
2023-01-29T20:02:33.770Z,-31.05
2023-01-29T20:06:02.614Z,-30.64
2023-01-29T20:09:11.170Z,-30.91
2023-01-29T20:12:18.488Z,-31.17
2023-01-29T20:15:26.885Z,-31.43
2023-01-29T20:18:32.913Z,-31.47
2023-01-29T20:21:50.151Z,-31.34
2023-01-29T20:24:55.795Z,-31.53
2023-01-29T20:28:10.475Z,-31.16
2023-01-29T20:31:17.227Z,-32.93
2023-01-29T20:34:24.932Z,-31.15
2023-01-29T20:37:32.779Z,-31.30
2023-01-29T20:40:42.037Z,-31.86
2023-01-29T20:43:51.223Z,-31.89
2023-01-29T20:47:06.437Z,-31.83
2023-01-29T20:50:13.639Z,-31.99
2023-01-29T20:53:22.051Z,-32.23
2023-01-29T20:56:41.363Z,-31.98
2023-01-29T20:59:51.731Z,-31.90
2023-01-29T21:02:57.221Z,-31.95
2023-01-29T21:06:03.287Z,-31.77
2023-01-29T21:09:11.873Z,-31.66
2023-01-29T21:12:20.723Z,-32.03
2023-01-29T21:15:28.024Z,-31.73
2023-01-29T21:18:34.475Z,-31.80
2023-01-29T21:21:44.335Z,-32.60
2023-01-29T21:24:52.890Z,-31.96
2023-01-29T21:28:03.078Z,-32.01
2023-01-29T21:31:23.060Z,-32.12
2023-01-29T21:34:42.672Z,-31.79
2023-01-29T21:37:56.189Z,-32.51
2023-01-29T21:41:05.730Z,-31.76
2023-01-29T21:44:11.890Z,-31.74
2023-01-29T21:47:17.653Z,-32.36
2023-01-29T21:50:30.983Z,-32.39
2023-01-29T21:53:38.048Z,-32.48
2023-01-29T21:56:57.850Z,-32.62
2023-01-29T22:00:03.797Z,-32.46
2023-01-29T22:03:09.811Z,-32.40
2023-01-29T22:06:15.693Z,-32.01
2023-01-29T22:09:22.224Z,-32.15
2023-01-29T22:12:28.071Z,-32.20
2023-01-29T22:15:34.213Z,-32.20
2023-01-29T22:18:39.674Z,-32.34
2023-01-29T22:21:45.965Z,-32.34
2023-01-29T22:24:53.203Z,-32.39
2023-01-29T22:28:00.405Z,-32.04
2023-01-29T22:31:05.737Z,-32.30
2023-01-29T22:34:15.725Z,-32.23
2023-01-29T22:37:19.459Z,-32.32
2023-01-29T22:40:27.533Z,-32.54
2023-01-29T22:43:31.417Z,-32.41
2023-01-29T22:46:39.311Z,-32.49
2023-01-29T22:49:43.034Z,-32.09
2023-01-29T22:52:56.549Z,-32.61
2023-01-29T22:56:01.171Z,-31.77
2023-01-29T22:59:07.713Z,-31.77
2023-01-29T23:02:12.379Z,-31.54
2023-01-29T23:05:18.740Z,-31.31
2023-01-29T23:08:24.269Z,-31.46
2023-01-29T23:11:30.176Z,-30.93
2023-01-29T23:14:36.514Z,-31.00
2023-01-29T23:17:42.447Z,-31.12
2023-01-29T23:20:46.231Z,-31.10
2023-01-29T23:23:56.160Z,-30.68
2023-01-29T23:27:18.087Z,-30.45
2023-01-29T23:30:26.500Z,-30.51
2023-01-29T23:33:32.015Z,-29.79
2023-01-29T23:36:37.918Z,-29.19
2023-01-29T23:39:43.280Z,-28.97
2023-01-29T23:42:51.590Z,-28.83
2023-01-29T23:46:01.439Z,-28.98
2023-01-29T23:49:08.100Z,-28.78
2023-01-29T23:52:13.506Z,-28.38
2023-01-29T23:55:19.445Z,-28.47
2023-01-29T23:58:23.299Z,-28.38
